Time;durP1;ratioP1;P1;durP2;ratioP2;P2;SDS_P1;SDS_P2;PMS_P1;PMS_P2;Temp;Humidity;BMP_temperature;BMP_pressure;BME280_temperature;BME280_humidity;BME280_pressure;Samples;Min_cycle;Max_cycle;Signal;HPM_P1;HPM_P2
2022/04/14 00:02:09;;;;;;;15.68;5.93;;;9.80;99.90;;;;;;5017557;28;20068;-87
2022/04/14 00:04:35;;;;;;;8.95;5.82;;;9.70;99.90;;;;;;5017365;28;20488;-88
2022/04/14 00:07:04;;;;;;;14.00;5.75;;;9.60;99.90;;;;;;5018001;28;20029;-87
2022/04/14 00:09:30;;;;;;;7.68;5.47;;;9.60;99.90;;;;;;5017667;28;20029;-87
2022/04/14 00:11:55;;;;;;;13.00;5.97;;;9.60;99.90;;;;;;5017353;28;20036;-87
2022/04/14 00:14:22;;;;;;;9.35;6.07;;;9.50;99.90;;;;;;5017217;28;20038;-87
2022/04/14 00:16:47;;;;;;;8.05;5.82;;;9.40;99.90;;;;;;5017720;28;20029;-88
2022/04/14 00:19:13;;;;;;;10.15;5.65;;;9.30;99.90;;;;;;5017254;28;20044;-87
2022/04/14 00:21:39;;;;;;;12.43;5.03;;;9.20;99.90;;;;;;5017621;28;20044;-87
2022/04/14 00:24:05;;;;;;;7.90;5.30;;;9.10;99.90;;;;;;5017122;28;20502;-87
2022/04/14 00:26:34;;;;;;;10.90;5.63;;;9.10;99.90;;;;;;5017301;28;20025;-87
2022/04/14 00:29:00;;;;;;;12.63;5.80;;;9.10;99.90;;;;;;5017232;28;20034;-87
2022/04/14 00:31:25;;;;;;;12.77;5.97;;;9.00;99.90;;;;;;5017123;28;20117;-88
2022/04/14 00:33:57;;;;;;;16.98;7.63;;;8.90;99.90;;;;;;5017222;28;20080;-87
2022/04/14 00:36:23;;;;;;;10.88;6.15;;;8.90;99.90;;;;;;5034446;28;20029;-88
2022/04/14 00:38:49;;;;;;;12.63;7.95;;;8.80;99.90;;;;;;5016822;28;20323;-87
2022/04/14 00:41:16;;;;;;;14.55;6.75;;;8.80;99.90;;;;;;5017140;28;20091;-87
2022/04/14 00:43:43;;;;;;;14.82;6.78;;;8.70;99.90;;;;;;5016573;28;20041;-87
2022/04/14 00:46:08;;;;;;;13.98;7.22;;;8.70;99.90;;;;;;5017022;28;20030;-88
2022/04/14 00:48:34;;;;;;;16.48;6.10;;;8.80;99.90;;;;;;5016723;28;20163;-88
2022/04/14 00:51:01;;;;;;;14.02;5.57;;;8.80;99.90;;;;;;5016555;28;20029;-88
2022/04/14 00:53:26;;;;;;;10.57;5.32;;;9.00;99.90;;;;;;5015429;28;20030;-88
2022/04/14 00:55:52;;;;;;;13.52;5.43;;;9.10;99.90;;;;;;5016874;28;20358;-87
2022/04/14 00:58:19;;;;;;;16.48;5.25;;;9.20;99.90;;;;;;5034098;28;20025;-87
2022/04/14 01:00:44;;;;;;;11.00;4.82;;;9.30;99.90;;;;;;5016695;28;20044;-88
2022/04/14 01:03:10;;;;;;;16.05;6.10;;;9.60;99.90;;;;;;5016375;28;20025;-88
2022/04/14 01:05:37;;;;;;;19.27;5.57;;;9.90;99.90;;;;;;5016375;28;20109;-88
2022/04/14 01:08:05;;;;;;;14.73;5.45;;;10.10;99.90;;;;;;5016141;28;20133;-88
2022/04/14 01:10:31;;;;;;;10.65;5.10;;;10.20;99.90;;;;;;5032355;28;20092;-87
2022/04/14 01:12:57;;;;;;;10.57;5.28;;;10.20;99.90;;;;;;5016455;28;20061;-87
2022/04/14 01:15:23;;;;;;;14.85;5.43;;;10.20;99.90;;;;;;5016238;28;20045;-88
2022/04/14 01:17:48;;;;;;;14.05;5.13;;;10.20;99.90;;;;;;5016214;28;20705;-88
2022/04/14 01:20:14;;;;;;;12.73;5.70;;;10.20;99.90;;;;;;5033960;28;20038;-87
2022/04/14 01:22:47;;;;;;;15.82;5.40;;;10.10;99.90;;;;;;5016116;28;20029;-88
2022/04/14 01:25:32;;;;;;;11.90;5.32;;;10.00;99.90;;;;;;5016193;28;20029;-87
2022/04/14 01:27:58;;;;;;;86.45;42.22;;;10.00;99.90;;;;;;5016629;28;20037;-87
2022/04/14 01:30:24;;;;;;;128.63;54.58;;;9.80;99.90;;;;;;5049270;28;20041;-88
2022/04/14 01:32:49;;;;;;;23.90;10.10;;;9.80;99.90;;;;;;5032595;28;20029;-87
2022/04/14 01:35:34;;;;;;;20.58;7.38;;;9.90;99.90;;;;;;5015624;28;20037;-88
2022/04/14 01:38:00;;;;;;;16.17;7.68;;;10.00;99.90;;;;;;5016185;28;20530;-88
2022/04/14 01:40:25;;;;;;;17.75;7.22;;;10.20;99.90;;;;;;5015751;28;20025;-88
2022/04/14 01:42:51;;;;;;;16.30;7.45;;;10.40;99.90;;;;;;5016023;28;20473;-88
2022/04/14 01:45:26;;;;;;;29.13;7.70;;;10.40;99.90;;;;;;5048865;28;20504;-88
2022/04/14 01:47:52;;;;;;;14.93;7.15;;;10.60;99.90;;;;;;5032552;28;20437;-88
2022/04/14 01:50:18;;;;;;;15.05;6.88;;;10.70;99.90;;;;;;5015956;28;20058;-88
2022/04/14 01:52:44;;;;;;;21.00;9.18;;;11.00;99.90;;;;;;5015886;28;20026;-87
2022/04/14 01:55:11;;;;;;;10.27;6.35;;;11.10;99.90;;;;;;5016007;28;20037;-87
2022/04/14 01:57:36;;;;;;;14.82;6.03;;;11.20;99.90;;;;;;5015840;28;20040;-88
2022/04/14 02:00:05;;;;;;;18.52;7.75;;;11.10;99.90;;;;;;5015657;28;20030;-88
2022/04/14 02:02:30;;;;;;;21.10;7.93;;;11.00;99.90;;;;;;5048956;28;20037;-88
2022/04/14 02:04:56;;;;;;;17.63;7.90;;;11.00;99.90;;;;;;5015142;28;20080;-87
2022/04/14 02:07:22;;;;;;;18.55;11.20;;;11.00;99.90;;;;;;5033186;28;20049;-87
2022/04/14 02:09:47;;;;;;;33.28;13.63;;;11.10;99.90;;;;;;5015428;28;20056;-87
2022/04/14 02:12:13;;;;;;;32.17;15.35;;;11.30;99.90;;;;;;5015178;28;20029;-87
2022/04/14 02:14:39;;;;;;;32.17;16.20;;;11.40;99.90;;;;;;5015109;28;20477;-87
2022/04/14 02:17:05;;;;;;;31.75;15.23;;;11.50;99.90;;;;;;5032712;28;20116;-87
2022/04/14 02:19:31;;;;;;;36.40;17.73;;;11.50;99.90;;;;;;5031768;28;20163;-88
2022/04/14 02:21:59;;;;;;;29.55;15.38;;;11.60;99.90;;;;;;5015369;28;20030;-87
2022/04/14 02:24:25;;;;;;;27.05;16.30;;;11.50;99.90;;;;;;5015305;28;20033;-87
2022/04/14 02:27:23;;;;;;;31.35;16.00;;;11.50;99.90;;;;;;5015427;28;20030;-86
2022/04/14 02:29:48;;;;;;;32.53;16.10;;;11.40;99.90;;;;;;5031838;28;20064;-87
2022/04/14 02:36:01;;;;;;;29.55;14.43;;;11.30;99.90;;;;;;5033818;28;20531;-88
2022/04/14 02:38:26;;;;;;;26.23;15.02;;;11.00;99.90;;;;;;5031647;28;20037;-88
2022/04/14 02:40:52;;;;;;;27.50;13.82;;;10.90;99.90;;;;;;5031798;28;20033;-87
2022/04/14 02:43:18;;;;;;;29.92;14.70;;;10.80;99.90;;;;;;5015191;28;20044;-87
2022/04/14 02:45:43;;;;;;;27.58;14.68;;;10.80;99.90;;;;;;5014773;28;20544;-87
2022/04/14 02:48:09;;;;;;;40.10;21.90;;;10.70;99.90;;;;;;5047955;28;20038;-88
2022/04/14 02:50:36;;;;;;;38.97;18.40;;;10.70;99.90;;;;;;5014979;28;20063;-88
2022/04/14 02:53:02;;;;;;;37.40;16.75;;;10.70;99.90;;;;;;5047972;28;20157;-88
2022/04/14 02:55:28;;;;;;;34.70;17.30;;;10.80;99.90;;;;;;5014779;28;20057;-88
2022/04/14 02:57:53;;;;;;;28.85;17.83;;;10.80;99.90;;;;;;5015004;28;20056;-88
2022/04/14 03:00:19;;;;;;;43.67;18.65;;;10.80;99.90;;;;;;5031377;28;20025;-88
2022/04/14 03:02:45;;;;;;;31.85;17.85;;;10.80;99.90;;;;;;5048322;28;20057;-88
2022/04/14 03:05:11;;;;;;;28.08;17.40;;;10.80;99.90;;;;;;5014806;28;20030;-87
2022/04/14 03:07:37;;;;;;;33.28;17.63;;;10.80;99.90;;;;;;5032759;28;20022;-88
2022/04/14 03:10:04;;;;;;;32.63;17.23;;;10.70;99.90;;;;;;5015368;28;20033;-88
2022/04/14 03:12:43;;;;;;;34.58;17.77;;;10.70;99.90;;;;;;5031620;28;20451;-88
2022/04/14 03:15:08;;;;;;;38.20;19.02;;;10.60;99.90;;;;;;5031660;28;20103;-88
2022/04/14 03:17:34;;;;;;;34.00;19.65;;;10.60;99.90;;;;;;5035276;28;20029;-88
2022/04/14 03:20:00;;;;;;;37.85;18.88;;;10.60;99.90;;;;;;5034318;28;20392;-88
2022/04/14 03:22:26;;;;;;;36.40;19.50;;;10.60;99.90;;;;;;5018074;28;20037;-88
2022/04/14 03:25:38;;;;;;;31.85;20.00;;;10.50;99.90;;;;;;5018655;28;20037;-88
2022/04/14 03:28:04;;;;;;;34.33;19.45;;;10.50;99.90;;;;;;5001790;28;20171;-88
2022/04/14 03:30:45;;;;;;;37.38;19.23;;;10.40;99.90;;;;;;5018822;28;20529;-88
2022/04/14 03:33:11;;;;;;;41.15;20.67;;;10.40;99.90;;;;;;5034896;28;20141;-88
2022/04/14 03:35:37;;;;;;;45.25;20.60;;;10.40;99.90;;;;;;5034772;28;20032;-88
2022/04/14 03:38:03;;;;;;;40.22;19.90;;;10.40;99.90;;;;;;5036097;28;20022;-89
2022/04/14 03:40:28;;;;;;;43.75;22.92;;;10.30;99.90;;;;;;5034771;28;20034;-88
2022/04/14 03:42:55;;;;;;;41.30;21.85;;;10.40;99.90;;;;;;5018204;28;20129;-88
2022/04/14 03:45:21;;;;;;;39.33;23.00;;;10.30;99.90;;;;;;5017908;28;20038;-88
2022/04/14 03:51:35;;;;;;;44.25;23.33;;;10.30;99.90;;;;;;5035591;28;20458;-88
2022/04/14 03:54:00;;;;;;;49.67;24.50;;;10.40;99.90;;;;;;5017176;28;20124;-88
2022/04/14 03:56:26;;;;;;;45.35;24.45;;;10.40;99.90;;;;;;5035300;28;20029;-88
2022/04/14 03:58:52;;;;;;;44.25;24.85;;;10.40;99.90;;;;;;5033778;28;20030;-88
2022/04/14 04:01:17;;;;;;;48.88;25.92;;;10.40;99.90;;;;;;5017832;28;20049;-87
2022/04/14 04:03:43;;;;;;;46.50;25.60;;;10.30;99.90;;;;;;5035545;28;20072;-88
2022/04/14 04:06:09;;;;;;;50.53;28.15;;;10.40;99.90;;;;;;5050994;28;20593;-88
2022/04/14 04:08:34;;;;;;;45.80;26.65;;;10.30;99.90;;;;;;5051177;28;20029;-88
2022/04/14 04:11:00;;;;;;;53.25;28.70;;;10.30;99.90;;;;;;5034893;28;20040;-87
2022/04/14 04:13:26;;;;;;;54.78;27.50;;;10.20;99.90;;;;;;5017608;28;20025;-88
2022/04/14 04:15:51;;;;;;;48.58;26.92;;;10.30;99.90;;;;;;5018067;28;20032;-87
2022/04/14 04:18:17;;;;;;;49.88;27.70;;;10.30;99.90;;;;;;5017767;28;20588;-87
2022/04/14 04:20:43;;;;;;;46.97;29.67;;;10.30;99.90;;;;;;5017744;28;20866;-88
2022/04/14 04:23:46;;;;;;;53.83;29.23;;;10.30;99.90;;;;;;5017250;28;20220;-88
2022/04/14 04:26:12;;;;;;;44.47;27.05;;;10.30;99.90;;;;;;5016961;28;20038;-88
2022/04/14 04:28:37;;;;;;;55.03;28.83;;;10.30;99.90;;;;;;5050891;28;20017;-88
2022/04/14 04:31:03;;;;;;;47.35;28.63;;;10.30;99.90;;;;;;5017666;28;20389;-88
2022/04/14 04:33:29;;;;;;;53.28;30.05;;;10.30;99.90;;;;;;5028651;28;20123;-89
2022/04/14 04:35:55;;;;;;;46.05;28.92;;;10.20;99.90;;;;;;5050034;28;20045;-88
2022/04/14 04:38:20;;;;;;;56.55;29.92;;;10.20;99.90;;;;;;5017265;28;20038;-91
2022/04/14 04:40:46;;;;;;;51.60;28.90;;;10.20;99.90;;;;;;5017799;28;20437;-91
2022/04/14 04:43:15;;;;;;;54.92;30.65;;;10.10;99.90;;;;;;5017080;28;20026;-91
2022/04/14 04:45:42;;;;;;;48.03;29.08;;;10.20;99.90;;;;;;5050497;28;20029;-90
2022/04/14 04:48:08;;;;;;;54.30;29.98;;;10.20;99.90;;;;;;5033425;28;20053;-90
2022/04/14 04:50:33;;;;;;;56.08;31.33;;;10.20;99.90;;;;;;5017927;28;20465;-91
2022/04/14 04:52:59;;;;;;;50.92;30.55;;;10.20;99.90;;;;;;5017872;28;20061;-91
2022/04/14 04:55:31;;;;;;;60.20;32.17;;;10.20;99.90;;;;;;5051487;28;20061;-91
2022/04/14 04:57:57;;;;;;;58.63;31.55;;;10.20;99.90;;;;;;5050456;28;20067;-91
2022/04/14 05:00:22;;;;;;;53.72;31.77;;;10.20;99.90;;;;;;5033687;28;20037;-91
2022/04/14 05:02:48;;;;;;;57.45;29.83;;;10.20;99.90;;;;;;5017930;28;20022;-91
2022/04/14 05:05:14;;;;;;;54.47;32.03;;;10.20;99.90;;;;;;5017601;28;20037;-91
2022/04/14 05:07:40;;;;;;;60.38;33.00;;;10.20;99.90;;;;;;5034218;28;20068;-91
2022/04/14 05:10:06;;;;;;;54.63;31.92;;;10.20;99.90;;;;;;5050864;28;20044;-91
2022/04/14 05:12:31;;;;;;;59.50;32.75;;;10.20;99.90;;;;;;5050524;28;20029;-91
2022/04/14 05:14:57;;;;;;;60.30;32.45;;;10.30;99.90;;;;;;5017693;28;20026;-91
2022/04/14 05:17:23;;;;;;;56.25;32.35;;;10.40;99.90;;;;;;5017590;28;20057;-91
2022/04/14 05:19:48;;;;;;;58.25;31.27;;;10.50;99.90;;;;;;5050646;28;20544;-91
2022/04/14 05:22:14;;;;;;;56.13;31.58;;;10.60;99.90;;;;;;5053239;28;20404;-91
2022/04/14 05:24:40;;;;;;;57.35;31.80;;;10.60;99.90;;;;;;5017351;28;20040;-92
2022/04/14 05:27:06;;;;;;;52.45;30.67;;;10.70;99.90;;;;;;5050386;28;20064;-91
2022/04/14 05:29:31;;;;;;;47.90;30.98;;;10.80;99.90;;;;;;5034144;28;20068;-91
2022/04/14 05:31:57;;;;;;;55.30;30.83;;;10.80;99.90;;;;;;5034456;28;20060;-91
2022/04/14 05:34:23;;;;;;;56.22;30.83;;;10.90;99.90;;;;;;5017617;28;20033;-90
2022/04/14 05:36:49;;;;;;;46.10;29.75;;;11.00;99.90;;;;;;5018035;28;20132;-91
2022/04/14 05:39:15;;;;;;;57.42;30.05;;;11.00;99.90;;;;;;5017544;28;20493;-91
2022/04/14 05:41:41;;;;;;;44.10;28.40;;;11.10;99.90;;;;;;5050543;28;20036;-90
2022/04/14 05:44:07;;;;;;;46.63;28.35;;;11.20;99.90;;;;;;5015615;28;20041;-90
2022/04/14 05:46:33;;;;;;;52.22;28.67;;;11.20;99.90;;;;;;5017290;28;20036;-90
2022/04/14 05:48:59;;;;;;;49.33;27.15;;;11.30;99.90;;;;;;5015780;28;20036;-91
2022/04/14 05:51:24;;;;;;;46.88;26.83;;;11.30;99.90;;;;;;5050429;28;20042;-90
2022/04/14 05:53:51;;;;;;;44.33;27.75;;;11.30;99.90;;;;;;5032657;28;20034;-90
2022/04/14 05:56:17;;;;;;;47.17;27.23;;;11.40;99.90;;;;;;5016361;28;20128;-91
2022/04/14 05:58:44;;;;;;;44.83;28.00;;;11.50;99.90;;;;;;5033218;28;20499;-90
2022/04/14 06:04:57;;;;;;;49.67;27.63;;;11.60;99.90;;;;;;5035106;28;20104;-90
2022/04/14 06:07:22;;;;;;;47.05;26.92;;;11.70;99.90;;;;;;5033550;28;20037;-91
2022/04/14 06:09:48;;;;;;;45.78;27.80;;;11.80;99.90;;;;;;5016936;28;20432;-89
2022/04/14 06:12:23;;;;;;;44.85;26.08;;;11.90;99.90;;;;;;5050228;28;20060;-91
2022/04/14 06:14:50;;;;;;;52.30;26.95;;;11.90;99.90;;;;;;5034797;28;20044;-90
2022/04/14 06:17:31;;;;;;;51.42;26.90;;;12.00;99.90;;;;;;5017131;28;20123;-90
2022/04/14 06:19:57;;;;;;;42.78;27.38;;;12.10;99.90;;;;;;5017340;28;20033;-90
2022/04/14 06:22:23;;;;;;;44.60;24.55;;;12.30;99.90;;;;;;5033492;28;20477;-90
2022/04/14 06:24:49;;;;;;;45.47;26.58;;;12.40;99.90;;;;;;5050121;28;20030;-91
2022/04/14 06:27:15;;;;;;;47.60;26.17;;;12.50;99.90;;;;;;5035138;28;20040;-91
2022/04/14 06:29:40;;;;;;;36.72;24.00;;;12.60;99.90;;;;;;5016937;28;20123;-90
2022/04/14 06:32:07;;;;;;;42.20;23.80;;;12.70;99.90;;;;;;5017144;28;20796;-90
2022/04/14 06:34:33;;;;;;;37.42;24.95;;;12.80;99.90;;;;;;5050957;28;20040;-91
2022/04/14 06:36:58;;;;;;;40.05;24.83;;;12.80;99.90;;;;;;5017801;28;20025;-91
2022/04/14 06:39:24;;;;;;;32.72;22.95;;;13.00;99.90;;;;;;5017159;28;20033;-91
2022/04/14 06:41:50;;;;;;;39.38;23.83;;;13.00;99.90;;;;;;5017028;28;20065;-90
2022/04/14 06:44:16;;;;;;;44.55;24.42;;;13.00;99.90;;;;;;5017834;28;20375;-90
2022/04/14 06:46:42;;;;;;;41.05;24.55;;;13.00;99.90;;;;;;5017232;28;20029;-91
2022/04/14 06:49:07;;;;;;;43.95;25.58;;;13.00;99.90;;;;;;5011236;28;20727;-91
2022/04/14 06:51:33;;;;;;;51.90;27.30;;;12.90;99.90;;;;;;5054017;28;20061;-91
2022/04/14 06:54:24;;;;;;;43.65;25.50;;;13.00;99.90;;;;;;5054054;28;20037;-91
2022/04/14 06:56:49;;;;;;;41.05;23.63;;;12.80;99.90;;;;;;5020622;28;20383;-91
2022/04/14 06:59:15;;;;;;;41.10;26.17;;;12.80;99.90;;;;;;5020933;28;20025;-90
2022/04/14 07:01:41;;;;;;;42.60;25.15;;;12.80;99.90;;;;;;5037172;28;20087;-90
2022/04/14 07:04:06;;;;;;;38.47;24.67;;;12.80;99.90;;;;;;5020768;28;20473;-90
2022/04/14 07:06:32;;;;;;;48.17;25.88;;;13.00;99.90;;;;;;5036953;28;20029;-91
2022/04/14 07:08:58;;;;;;;43.38;25.80;;;13.10;99.90;;;;;;5019998;28;20037;-90
2022/04/14 07:11:23;;;;;;;39.15;26.65;;;13.10;99.90;;;;;;5020997;28;20040;-91
2022/04/14 07:13:49;;;;;;;54.05;28.27;;;13.00;99.90;;;;;;5020318;28;20472;-89
2022/04/14 07:16:15;;;;;;;41.60;27.00;;;12.90;99.90;;;;;;5020075;28;20083;-90
2022/04/14 07:18:40;;;;;;;39.78;27.08;;;12.80;99.90;;;;;;5020159;28;20036;-91
2022/04/14 07:21:06;;;;;;;48.70;28.23;;;12.80;99.90;;;;;;5021039;28;20025;-90
2022/04/14 07:23:32;;;;;;;42.80;24.80;;;12.70;99.90;;;;;;5053912;28;20033;-91
2022/04/14 07:25:58;;;;;;;40.20;25.15;;;12.80;99.90;;;;;;5020701;28;20052;-91
2022/04/14 07:28:23;;;;;;;38.80;24.55;;;12.90;99.90;;;;;;5020327;28;20064;-90
2022/04/14 07:30:49;;;;;;;39.90;25.30;;;13.00;99.90;;;;;;5020253;28;20128;-90
2022/04/14 07:33:15;;;;;;;41.33;23.95;;;13.20;99.90;;;;;;5019730;28;20033;-91
2022/04/14 07:35:40;;;;;;;39.60;23.55;;;13.40;99.90;;;;;;5020099;28;20029;-90
2022/04/14 07:38:06;;;;;;;35.60;23.40;;;13.60;99.90;;;;;;5053046;28;20029;-91
2022/04/14 07:40:32;;;;;;;38.97;23.27;;;13.80;99.90;;;;;;5020037;28;20084;-91
2022/04/14 07:42:58;;;;;;;36.88;22.25;;;14.00;99.90;;;;;;5019433;28;20043;-90
2022/04/14 07:45:24;;;;;;;34.15;21.38;;;14.10;99.90;;;;;;5034784;28;20052;-91
2022/04/14 07:47:50;;;;;;;32.92;21.05;;;14.20;99.90;;;;;;5019947;28;20127;-90
2022/04/14 07:50:20;;;;;;;44.05;22.60;;;14.50;99.90;;;;;;5016237;28;20076;-91
2022/04/14 07:52:56;;;;;;;32.25;20.77;;;14.60;99.90;;;;;;5035742;28;20060;-91
2022/04/14 07:55:30;;;;;;;34.45;19.85;;;14.60;99.90;;;;;;5035433;28;20503;-89
2022/04/14 07:57:58;;;;;;;31.95;19.67;;;14.70;99.90;;;;;;5019031;28;20033;-90
2022/04/14 08:00:30;;;;;;;30.77;18.63;;;14.90;99.90;;;;;;5019477;28;20033;-90
2022/04/14 08:02:58;;;;;;;28.80;17.73;;;15.00;99.90;;;;;;5002153;28;20025;-90
2022/04/14 08:05:34;;;;;;;35.40;19.60;;;15.20;99.90;;;;;;5052216;28;20056;-89
2022/04/14 08:08:04;;;;;;;29.08;17.95;;;15.40;99.90;;;;;;5018914;28;20030;-89
2022/04/14 08:10:31;;;;;;;32.60;16.92;;;15.60;99.90;;;;;;5036151;28;20055;-89
2022/04/14 08:12:57;;;;;;;28.33;17.40;;;15.80;99.90;;;;;;5018981;28;20064;-89
2022/04/14 08:15:23;;;;;;;30.00;16.40;;;15.90;99.90;;;;;;5019019;28;20025;-90
2022/04/14 08:17:49;;;;;;;27.20;17.20;;;16.00;99.90;;;;;;5052018;28;20524;-90
2022/04/14 08:20:16;;;;;;;26.55;15.43;;;16.20;99.90;;;;;;5018988;28;20033;-89
2022/04/14 08:22:47;;;;;;;28.02;15.18;;;16.40;99.90;;;;;;5018838;28;20036;-89
2022/04/14 08:25:22;;;;;;;27.90;15.55;;;16.60;99.90;;;;;;5018835;28;20755;-89
2022/04/14 08:27:49;;;;;;;27.48;15.40;;;17.00;99.90;;;;;;5035617;28;20041;-89
2022/04/14 08:30:16;;;;;;;26.90;16.65;;;17.40;99.90;;;;;;5035316;28;20477;-90
2022/04/14 08:32:46;;;;;;;27.58;15.43;;;17.60;99.90;;;;;;5035552;28;20033;-90
2022/04/14 08:35:16;;;;;;;25.00;13.95;;;17.60;99.90;;;;;;5035949;28;20052;-89
2022/04/14 08:37:43;;;;;;;17.50;12.38;;;17.70;99.90;;;;;;5019008;28;20030;-89
2022/04/14 08:40:15;;;;;;;25.88;13.65;;;17.70;99.90;;;;;;5017963;28;20025;-90
2022/04/14 08:42:43;;;;;;;25.08;14.52;;;17.60;99.90;;;;;;5034483;28;20034;-91
2022/04/14 08:45:13;;;;;;;23.58;14.65;;;17.50;99.90;;;;;;5034471;28;20033;-89
2022/04/14 08:47:40;;;;;;;18.27;12.77;;;17.60;99.90;;;;;;5034586;28;20412;-90
2022/04/14 08:50:08;;;;;;;22.30;13.27;;;17.90;99.90;;;;;;5034552;28;20374;-89
2022/04/14 08:52:35;;;;;;;22.63;13.48;;;18.10;99.90;;;;;;5032539;28;20068;-89
2022/04/14 08:55:06;;;;;;;17.67;11.82;;;18.20;99.90;;;;;;5018217;28;20465;-90
2022/04/14 08:57:32;;;;;;;23.38;12.27;;;18.40;99.90;;;;;;5034859;28;20025;-89
2022/04/14 09:00:00;;;;;;;20.65;10.98;;;19.30;99.90;;;;;;5034871;28;20033;-90
2022/04/14 09:02:27;;;;;;;18.83;10.35;;;20.80;99.90;;;;;;5018012;28;20036;-90
2022/04/14 09:04:55;;;;;;;17.52;11.35;;;22.00;99.90;;;;;;5034961;28;20048;-89
2022/04/14 09:07:21;;;;;;;19.30;10.60;;;22.40;99.90;;;;;;5033659;28;20036;-90
2022/04/14 09:09:47;;;;;;;18.50;12.07;;;22.30;99.90;;;;;;5018152;28;20037;-89
2022/04/14 09:12:13;;;;;;;14.45;10.82;;;22.80;99.90;;;;;;5018177;28;20083;-90
2022/04/14 09:14:39;;;;;;;21.50;11.95;;;22.50;99.90;;;;;;5017025;28;20040;-90
2022/04/14 09:17:06;;;;;;;19.90;11.13;;;21.70;99.90;;;;;;5017862;28;20022;-89
2022/04/14 09:19:37;;;;;;;18.83;9.90;;;21.80;99.90;;;;;;5017656;28;20026;-90
2022/04/14 09:22:20;;;;;;;18.13;9.63;;;22.50;99.90;;;;;;5034430;28;20029;-90
2022/04/14 09:29:10;;;;;;;21.77;11.50;;;22.30;99.90;;;;;;5035694;28;20036;-89
2022/04/14 09:31:50;;;;;;;16.67;9.63;;;22.20;99.90;;;;;;5033760;28;20123;-90
2022/04/14 09:34:48;;;;;;;20.02;9.82;;;22.40;99.90;;;;;;5014338;28;20029;-90
2022/04/14 09:37:14;;;;;;;19.38;11.15;;;23.00;99.90;;;;;;5017527;28;20116;-89
2022/04/14 09:40:11;;;;;;;19.88;9.90;;;23.10;99.90;;;;;;5017284;28;20520;-90
2022/04/14 09:42:43;;;;;;;21.83;9.27;;;22.80;99.90;;;;;;5012890;28;20037;-90
2022/04/14 09:45:23;;;;;;;17.10;9.55;;;22.30;99.90;;;;;;5017705;28;20029;-90
2022/04/14 09:47:50;;;;;;;14.27;9.40;;;22.40;99.90;;;;;;5033809;28;20034;-90
2022/04/14 09:50:39;;;;;;;13.63;9.80;;;22.40;99.90;;;;;;5017111;28;20056;-91
2022/04/14 09:53:10;;;;;;;17.63;9.27;;;22.20;99.90;;;;;;5016900;28;20037;-90
2022/04/14 09:55:37;;;;;;;;;;;21.70;99.90;;;;;;5017271;28;20056;-89
2022/04/14 09:58:12;;;;;;;21.50;8.65;;;21.90;99.90;;;;;;5033376;28;20000;-90
2022/04/14 10:00:47;;;;;;;17.67;9.35;;;21.90;99.90;;;;;;5016668;28;20029;-90
2022/04/14 10:03:20;;;;;;;14.55;8.93;;;21.80;99.90;;;;;;5017067;28;20076;-89
2022/04/14 10:06:05;;;;;;;17.35;8.10;;;22.40;99.90;;;;;;5017251;28;20116;-90
2022/04/14 10:08:51;;;;;;;14.52;8.43;;;23.40;99.90;;;;;;5016894;28;20061;-90
2022/04/14 10:11:25;;;;;;;23.45;8.90;;;24.50;99.90;;;;;;5034229;28;20044;-90
2022/04/14 10:13:50;;;;;;;15.25;9.50;;;24.70;99.90;;;;;;5016722;28;20061;-90
2022/04/14 10:16:23;;;;;;;17.55;8.35;;;25.40;99.90;;;;;;5016810;28;20056;-91
2022/04/14 10:18:52;;;;;;;12.45;8.90;;;25.30;99.90;;;;;;5016656;28;20428;-90
2022/04/14 10:21:19;;;;;;;18.85;9.95;;;24.90;99.10;;;;;;5016750;28;20436;-90
2022/04/14 10:23:47;;;;;;;14.68;8.82;;;24.60;97.60;;;;;;5033060;28;20053;-89
2022/04/14 10:26:14;;;;;;;14.57;8.43;;;24.60;97.60;;;;;;5037138;28;20412;-89
2022/04/14 10:28:43;;;;;;;15.50;9.10;;;24.40;99.90;;;;;;5020247;28;20040;-91
2022/04/14 10:31:11;;;;;;;18.23;9.93;;;24.60;99.90;;;;;;5020604;28;20129;-90
2022/04/14 10:33:39;;;;;;;12.73;9.70;;;23.90;99.90;;;;;;5020562;28;20484;-91
2022/04/14 10:36:05;;;;;;;20.25;10.85;;;23.10;99.90;;;;;;5020877;28;20033;-90
2022/04/14 10:38:37;;;;;;;17.17;11.18;;;22.60;99.90;;;;;;5053675;28;20080;-90
2022/04/14 10:41:13;;;;;;;22.38;11.82;;;22.80;99.90;;;;;;5053200;28;20116;-90
2022/04/14 10:43:42;;;;;;;17.85;11.88;;;22.50;99.90;;;;;;5020542;28;20156;-91
2022/04/14 10:46:08;;;;;;;19.83;12.65;;;22.30;99.90;;;;;;5054030;28;20123;-90
2022/04/14 10:48:40;;;;;;;19.58;13.18;;;21.30;99.90;;;;;;5020157;28;20057;-90
2022/04/14 10:51:23;;;;;;;21.45;15.30;;;20.90;99.90;;;;;;5020634;28;20025;-91
2022/04/14 10:54:04;;;;;;;21.27;14.98;;;20.70;99.90;;;;;;5020143;28;20048;-91
2022/04/14 10:57:22;;;;;;;29.23;15.82;;;20.40;99.90;;;;;;5020390;28;20029;-91
2022/04/14 10:59:49;;;;;;;29.88;17.65;;;20.00;99.90;;;;;;5003426;28;20037;-89
2022/04/14 11:02:17;;;;;;;30.58;19.13;;;20.40;99.90;;;;;;5020099;28;20033;-91
2022/04/14 11:04:46;;;;;;;26.30;17.67;;;20.20;99.90;;;;;;5036698;28;20052;-90
2022/04/14 11:07:22;;;;;;;20.10;16.08;;;20.30;99.90;;;;;;5036455;28;20052;-90
2022/04/14 11:09:52;;;;;;;24.13;17.52;;;20.80;99.90;;;;;;5036622;28;20412;-91
2022/04/14 11:12:26;;;;;;;35.38;17.52;;;20.90;99.90;;;;;;5003604;28;20488;-90
2022/04/14 11:14:59;;;;;;;25.23;16.92;;;20.60;99.90;;;;;;5019687;28;20048;-90
2022/04/14 11:17:30;;;;;;;27.90;16.00;;;20.60;99.90;;;;;;5053022;28;20535;-91
2022/04/14 11:20:12;;;;;;;26.38;16.38;;;20.80;99.90;;;;;;5003662;28;20493;-90
2022/04/14 11:23:06;;;;;;;26.00;15.95;;;21.00;99.90;;;;;;5003588;28;20026;-89
2022/04/14 11:25:45;;;;;;;31.02;17.05;;;21.00;99.90;;;;;;5052865;28;20025;-91
2022/04/14 11:28:20;;;;;;;26.10;17.15;;;20.80;99.90;;;;;;5020100;28;20037;-91
2022/04/14 11:30:48;;;;;;;26.92;15.93;;;20.60;99.90;;;;;;5053721;28;20076;-90
2022/04/14 11:33:33;;;;;;;24.65;16.67;;;20.80;99.90;;;;;;5020051;28;20052;-89
2022/04/14 11:36:19;;;;;;;24.17;16.23;;;21.00;99.90;;;;;;5051835;28;20033;-90
2022/04/14 11:39:04;;;;;;;23.80;15.45;;;21.30;99.90;;;;;;5037109;28;20036;-91
2022/04/14 11:49:45;;;;;;;25.80;17.95;;;21.80;99.90;;;;;;5036882;28;20109;-90
2022/04/14 11:52:11;;;;;;;27.80;18.00;;;21.50;99.90;;;;;;5019946;28;20366;-90
2022/04/14 11:54:38;;;;;;;26.40;18.55;;;20.60;99.90;;;;;;5037622;28;20029;-91
2022/04/14 11:57:11;;;;;;;31.52;20.40;;;20.10;99.90;;;;;;5019405;28;20021;-91
2022/04/14 11:59:48;;;;;;;35.33;21.75;;;19.40;99.90;;;;;;5019932;28;20476;-92
2022/04/14 12:02:18;;;;;;;31.23;20.30;;;19.20;99.90;;;;;;5019778;28;20037;-92
2022/04/14 12:04:54;;;;;;;33.15;19.25;;;19.50;99.90;;;;;;5037085;28;20116;-93
2022/04/14 12:07:34;;;;;;;25.45;18.35;;;20.10;99.90;;;;;;5021040;28;20033;-91
2022/04/14 12:10:09;;;;;;;37.75;19.48;;;20.10;99.90;;;;;;5036717;28;20033;-89
2022/04/14 12:12:37;;;;;;;28.25;18.65;;;20.10;99.90;;;;;;5036400;28;20042;-89
2022/04/14 12:15:04;;;;;;;29.02;19.15;;;20.30;99.90;;;;;;5036390;28;20025;-90
2022/04/14 12:17:30;;;;;;;28.75;19.20;;;20.50;99.90;;;;;;5052507;28;20116;-90
2022/04/14 12:20:04;;;;;;;28.88;20.73;;;20.60;99.90;;;;;;5019002;28;20021;-92
2022/04/14 12:22:35;;;;;;;30.05;21.17;;;19.80;99.90;;;;;;5052064;28;20120;-89
2022/04/14 12:25:09;;;;;;;33.55;21.80;;;19.40;99.90;;;;;;5019632;28;20061;-90
2022/04/14 12:27:34;;;;;;;39.15;20.77;;;19.60;99.90;;;;;;5035460;28;20081;-92
2022/04/14 12:30:16;;;;;;;34.83;21.65;;;19.60;99.90;;;;;;5018690;28;20480;-90
2022/04/14 12:32:43;;;;;;;34.72;20.40;;;19.40;99.90;;;;;;5036006;28;20060;-91
2022/04/14 12:35:10;;;;;;;34.83;20.25;;;19.50;99.90;;;;;;5019954;28;20037;-90
2022/04/14 12:37:40;;;;;;;29.35;20.65;;;19.70;99.90;;;;;;5051614;28;20030;-90
2022/04/14 12:40:21;;;;;;;32.05;21.52;;;19.50;99.90;;;;;;5018277;28;20396;-90
2022/04/14 12:42:47;;;;;;;36.00;20.92;;;19.70;99.90;;;;;;5018457;28;20029;-91
2022/04/14 12:45:15;;;;;;;33.78;21.20;;;19.90;99.90;;;;;;5034396;28;20041;-92
2022/04/14 12:47:45;;;;;;;33.40;20.70;;;19.80;99.90;;;;;;5017980;28;20068;-91
2022/04/14 12:50:13;;;;;;;28.52;20.48;;;19.70;99.90;;;;;;5034815;28;20046;-91
2022/04/14 12:52:46;;;;;;;28.67;21.92;;;19.60;99.90;;;;;;5034618;28;20034;-89
2022/04/14 12:55:26;;;;;;;31.42;20.45;;;19.40;99.90;;;;;;5034657;28;20056;-91
2022/04/14 12:58:11;;;;;;;31.08;21.35;;;19.10;99.90;;;;;;5034161;28;20033;-90
2022/04/14 13:00:37;;;;;;;35.15;20.63;;;19.30;99.90;;;;;;5018001;28;20128;-90
2022/04/14 13:03:13;;;;;;;27.17;19.38;;;19.40;99.90;;;;;;5034302;28;20463;-90
2022/04/14 13:05:43;;;;;;;29.00;20.35;;;19.50;99.90;;;;;;5017973;28;20095;-91